createdAt,value
2023-05-07T00:01:42.010Z,100652.59
2023-05-07T00:04:11.276Z,100658.56
2023-05-07T00:06:39.033Z,100659.84
2023-05-07T00:09:06.533Z,100663.41
2023-05-07T00:11:35.053Z,100661.38
2023-05-07T00:14:03.960Z,100655.66
2023-05-07T00:16:31.624Z,100655.50
2023-05-07T00:18:59.117Z,100660.41
2023-05-07T00:21:28.048Z,100657.66
2023-05-07T00:23:55.874Z,100658.00
2023-05-07T00:26:25.811Z,100647.25
2023-05-07T00:28:53.273Z,100651.00
2023-05-07T00:31:20.801Z,100651.44
2023-05-07T00:33:48.556Z,100646.50
2023-05-07T00:36:16.023Z,100643.25
2023-05-07T00:38:44.819Z,100648.84
2023-05-07T00:41:12.314Z,100647.00
2023-05-07T00:43:39.826Z,100649.91
2023-05-07T00:46:07.431Z,100647.81
2023-05-07T00:48:35.183Z,100631.88
2023-05-07T00:51:02.740Z,100638.03
2023-05-07T00:53:30.254Z,100638.09
2023-05-07T00:55:59.241Z,100638.72
2023-05-07T00:58:26.764Z,100630.22
2023-05-07T01:00:54.255Z,100631.88
2023-05-07T01:03:22.574Z,100633.34
2023-05-07T01:05:51.259Z,100632.13
2023-05-07T01:08:19.750Z,100627.34
2023-05-07T01:10:47.581Z,100640.19
2023-05-07T01:13:16.544Z,100636.13
2023-05-07T01:15:44.723Z,100638.16
2023-05-07T01:18:12.381Z,100633.16
2023-05-07T01:20:40.069Z,100632.13
2023-05-07T01:23:09.088Z,100631.09
2023-05-07T01:25:36.664Z,100636.69
2023-05-07T01:28:04.212Z,100645.84
2023-05-07T01:30:31.785Z,100634.22
2023-05-07T01:33:01.644Z,100632.72
2023-05-07T01:35:31.483Z,100641.44
2023-05-07T01:37:59.122Z,100644.19
2023-05-07T01:40:27.995Z,100635.31
2023-05-07T01:42:56.230Z,100628.88
2023-05-07T01:45:23.795Z,100625.53
2023-05-07T01:47:51.735Z,100630.97
2023-05-07T01:50:20.669Z,100615.69
2023-05-07T01:52:49.181Z,100620.16
2023-05-07T01:55:16.614Z,100623.53
2023-05-07T01:57:45.461Z,100617.69
2023-05-07T02:00:13.943Z,100618.38
2023-05-07T02:02:41.666Z,100615.28
2023-05-07T02:05:10.069Z,100617.00
2023-05-07T02:07:37.533Z,100612.91
2023-05-07T02:10:06.036Z,100637.50
2023-05-07T02:12:33.589Z,100625.22
2023-05-07T02:15:03.536Z,100632.91
2023-05-07T02:17:34.205Z,100635.66
2023-05-07T02:20:01.759Z,100630.28
2023-05-07T02:22:29.237Z,100630.72
2023-05-07T02:24:56.662Z,100639.81
2023-05-07T02:27:24.126Z,100631.75
2023-05-07T02:29:51.576Z,100635.66
2023-05-07T02:32:20.736Z,100632.81
2023-05-07T02:34:48.192Z,100627.44
2023-05-07T02:37:15.633Z,100639.81
2023-05-07T02:39:43.083Z,100640.25
2023-05-07T02:42:10.537Z,100642.34
2023-05-07T02:44:38.023Z,100627.88
2023-05-07T02:47:05.919Z,100635.81
2023-05-07T02:49:34.904Z,100629.63
2023-05-07T02:52:02.455Z,100639.47
2023-05-07T02:54:29.920Z,100638.06
2023-05-07T02:56:57.361Z,100627.91
2023-05-07T02:59:26.146Z,100630.38
2023-05-07T03:01:53.618Z,100634.13
2023-05-07T03:04:21.337Z,100634.97
2023-05-07T03:06:50.242Z,100634.53
2023-05-07T03:09:17.726Z,100637.06
2023-05-07T03:11:45.428Z,100632.38
2023-05-07T03:14:12.870Z,100623.88
2023-05-07T03:16:41.145Z,100630.06
2023-05-07T03:19:08.687Z,100627.00
2023-05-07T03:21:36.227Z,100632.59
2023-05-07T03:24:05.536Z,100631.94
2023-05-07T03:26:32.995Z,100634.63
2023-05-07T03:29:00.439Z,100630.47
2023-05-07T03:31:27.929Z,100627.22
2023-05-07T03:33:57.058Z,100625.53
2023-05-07T03:36:25.062Z,100625.97
2023-05-07T03:38:52.554Z,100609.44
2023-05-07T03:41:21.647Z,100613.00
2023-05-07T03:43:49.111Z,100611.97
2023-05-07T03:46:16.697Z,100609.66
2023-05-07T03:48:44.176Z,100615.66
2023-05-07T03:51:11.624Z,100613.22
2023-05-07T03:53:39.114Z,100616.09
2023-05-07T03:56:06.825Z,100624.34
2023-05-07T03:58:35.831Z,100616.50
2023-05-07T04:01:03.690Z,100616.53
2023-05-07T04:03:31.409Z,100616.97
2023-05-07T04:05:58.971Z,100615.34
2023-05-07T04:08:26.705Z,100615.97
2023-05-07T04:10:57.018Z,100618.66
2023-05-07T04:13:24.736Z,100624.66
2023-05-07T04:15:53.836Z,100626.56
2023-05-07T04:18:22.204Z,100644.25
2023-05-07T04:20:50.218Z,100641.19
2023-05-07T04:23:17.973Z,100655.25
2023-05-07T04:25:46.092Z,100654.78
2023-05-07T04:28:13.747Z,100659.34
2023-05-07T04:30:42.185Z,100659.78
2023-05-07T04:33:11.494Z,100658.16
2023-05-07T04:35:39.152Z,100656.91
2023-05-07T04:38:06.625Z,100654.41
2023-05-07T04:40:34.085Z,100652.56
2023-05-07T04:43:02.168Z,100656.25
2023-05-07T04:45:29.634Z,100655.63
2023-05-07T04:47:57.146Z,100667.41
2023-05-07T04:50:26.839Z,100661.69
2023-05-07T04:52:54.478Z,100667.00
2023-05-07T04:55:21.969Z,100660.84
2023-05-07T04:57:49.430Z,100671.38
2023-05-07T05:00:17.555Z,100672.00
2023-05-07T05:02:45.084Z,100675.34
2023-05-07T05:05:12.685Z,100676.09
2023-05-07T05:07:41.470Z,100681.47
2023-05-07T05:10:09.445Z,100683.53
2023-05-07T05:12:37.129Z,100688.09
2023-05-07T05:15:05.376Z,100688.47
2023-05-07T05:17:32.874Z,100695.03
2023-05-07T05:20:00.468Z,100698.56
2023-05-07T05:22:30.695Z,100696.44
2023-05-07T05:24:59.508Z,100701.03
2023-05-07T05:27:27.027Z,100702.47
2023-05-07T05:29:54.481Z,100699.53
2023-05-07T05:32:22.087Z,100697.06
2023-05-07T05:34:49.990Z,100710.28
2023-05-07T05:37:17.583Z,100710.28
2023-05-07T05:39:45.129Z,100705.53
2023-05-07T05:42:13.918Z,100706.56
2023-05-07T05:44:41.389Z,100704.69
2023-05-07T05:47:08.947Z,100705.53
2023-05-07T05:49:36.448Z,100704.47
2023-05-07T05:52:04.105Z,100696.81
2023-05-07T05:54:32.986Z,100710.25
2023-05-07T05:57:00.462Z,100710.63
2023-05-07T05:59:29.316Z,100704.81
2023-05-07T06:01:56.889Z,100704.38
2023-05-07T06:04:24.355Z,100695.06
2023-05-07T06:06:51.864Z,100699.78
2023-05-07T06:09:19.301Z,100707.63
2023-05-07T06:11:46.810Z,100704.63
2023-05-07T06:14:14.290Z,100708.16
2023-05-07T06:16:43.176Z,100703.38
2023-05-07T06:19:10.651Z,100704.38
2023-05-07T06:21:38.126Z,100706.19
2023-05-07T06:24:05.988Z,100705.91
2023-05-07T06:26:33.450Z,100705.66
2023-05-07T06:29:00.899Z,100703.13
2023-05-07T06:31:31.774Z,100705.00
2023-05-07T06:34:03.405Z,100706.38
2023-05-07T06:36:31.139Z,100713.16
2023-05-07T06:38:58.648Z,100716.00
2023-05-07T06:41:26.814Z,100715.94
2023-05-07T06:43:54.334Z,100716.09
2023-05-07T06:46:22.270Z,100719.19
2023-05-07T06:48:49.919Z,100704.44
2023-05-07T06:51:18.699Z,100707.81
2023-05-07T06:53:46.173Z,100712.91
2023-05-07T06:56:13.675Z,100717.59
2023-05-07T06:58:41.181Z,100713.34
2023-05-07T07:01:08.727Z,100707.50
2023-05-07T07:03:36.221Z,100705.38
2023-05-07T07:06:04.197Z,100719.69
2023-05-07T07:08:33.057Z,100713.38
2023-05-07T07:11:00.517Z,100721.72
2023-05-07T07:13:28.063Z,100719.88
2023-05-07T07:15:55.724Z,100728.41
2023-05-07T07:18:23.239Z,100720.66
2023-05-07T07:20:50.936Z,100729.06
2023-05-07T07:23:18.382Z,100720.38
2023-05-07T07:25:47.413Z,100730.69
2023-05-07T07:28:14.897Z,100730.56
2023-05-07T07:30:42.369Z,100729.38
2023-05-07T07:33:09.879Z,100731.53
2023-05-07T07:35:37.467Z,100732.47
2023-05-07T07:38:04.925Z,100724.41
2023-05-07T07:40:32.402Z,100723.34
2023-05-07T07:43:02.216Z,100718.31
2023-05-07T07:45:29.983Z,100730.41
2023-05-07T07:47:57.473Z,100729.50
2023-05-07T07:50:36.050Z,100732.19
2023-05-07T07:53:10.874Z,100726.09
2023-05-07T07:55:40.497Z,100741.63
2023-05-07T07:58:09.438Z,100738.94
2023-05-07T08:00:37.008Z,100734.94
2023-05-07T08:03:06.168Z,100731.19
2023-05-07T08:05:33.853Z,100735.19
2023-05-07T08:08:01.332Z,100736.47
2023-05-07T08:10:29.044Z,100735.53
2023-05-07T08:12:56.578Z,100734.72
2023-05-07T08:15:25.404Z,100731.66
2023-05-07T08:17:52.897Z,100739.88
2023-05-07T08:20:20.758Z,100739.72
2023-05-07T08:22:48.241Z,100735.06
2023-05-07T08:25:15.757Z,100731.53
2023-05-07T08:27:43.247Z,100731.28
2023-05-07T08:30:11.994Z,100730.69
2023-05-07T08:32:41.096Z,100726.34
2023-05-07T08:35:09.507Z,100727.91
2023-05-07T08:37:36.979Z,100733.38
2023-05-07T08:40:06.598Z,100729.75
2023-05-07T08:42:37.879Z,100728.47
2023-05-07T08:45:07.618Z,100724.56
2023-05-07T08:47:39.506Z,100738.56
2023-05-07T08:50:09.523Z,100738.50
2023-05-07T08:52:37.405Z,100732.81
2023-05-07T08:55:05.984Z,100728.16
2023-05-07T08:57:33.499Z,100726.50
2023-05-07T09:00:01.048Z,100722.88
2023-05-07T09:02:28.586Z,100720.06
2023-05-07T09:04:56.285Z,100725.84
2023-05-07T09:07:25.630Z,100719.56
2023-05-07T09:09:53.133Z,100728.47
2023-05-07T09:12:20.697Z,100728.22
2023-05-07T09:14:48.178Z,100727.84
2023-05-07T09:17:15.664Z,100726.28
2023-05-07T09:19:43.118Z,100731.19
2023-05-07T09:22:10.593Z,100729.47
2023-05-07T09:24:39.584Z,100726.56
2023-05-07T09:27:07.863Z,100729.53
2023-05-07T09:29:36.390Z,100728.78
2023-05-07T09:32:04.547Z,100723.28
2023-05-07T09:34:32.208Z,100717.94
2023-05-07T09:37:00.709Z,100721.78
2023-05-07T09:39:28.217Z,100725.09
2023-05-07T09:41:59.401Z,100721.72
2023-05-07T09:44:27.716Z,100725.50
2023-05-07T09:46:56.583Z,100718.38
2023-05-07T09:49:25.835Z,100720.13
2023-05-07T09:51:54.672Z,100713.31
2023-05-07T09:54:22.135Z,100716.06
2023-05-07T09:56:50.279Z,100716.22
2023-05-07T09:59:19.077Z,100723.84
2023-05-07T10:01:47.054Z,100725.81
2023-05-07T10:04:14.791Z,100720.84
2023-05-07T10:06:42.831Z,100716.75
2023-05-07T10:09:10.703Z,100719.53
2023-05-07T10:11:38.871Z,100717.13
2023-05-07T10:14:07.304Z,100706.19
2023-05-07T10:16:38.067Z,100704.03
2023-05-07T10:19:05.826Z,100710.63
2023-05-07T10:21:36.062Z,100709.06
2023-05-07T10:24:09.397Z,100702.00
2023-05-07T10:26:37.254Z,100699.56
2023-05-07T10:29:09.377Z,100698.66
2023-05-07T10:31:51.337Z,100709.09
2023-05-07T10:34:24.367Z,100699.78
2023-05-07T10:36:52.802Z,100695.59
2023-05-07T10:39:21.670Z,100690.84
2023-05-07T10:41:49.278Z,100691.22
2023-05-07T10:44:27.930Z,100698.19
2023-05-07T10:47:09.889Z,100696.84
2023-05-07T10:49:38.332Z,100710.72
2023-05-07T10:52:16.876Z,100696.75
2023-05-07T10:54:45.397Z,100691.16
2023-05-07T10:57:35.085Z,100689.38
2023-05-07T11:00:02.647Z,100676.81
2023-05-07T11:03:08.024Z,100686.56
2023-05-07T11:05:38.252Z,100683.94
2023-05-07T11:08:06.958Z,100683.94
2023-05-07T11:10:50.164Z,100679.88
2023-05-07T11:13:17.889Z,100685.16
2023-05-07T11:15:46.892Z,100681.66
2023-05-07T11:18:17.050Z,100691.66
2023-05-07T11:20:49.860Z,100683.81
2023-05-07T11:24:09.743Z,100685.22
2023-05-07T11:26:45.902Z,100684.50
2023-05-07T11:29:14.897Z,100683.72
2023-05-07T11:31:42.608Z,100674.97
2023-05-07T11:34:11.592Z,100677.72
2023-05-07T11:36:44.698Z,100667.16
2023-05-07T11:39:28.839Z,100673.69
2023-05-07T11:41:56.673Z,100670.69
2023-05-07T11:44:24.291Z,100665.31
2023-05-07T11:46:51.985Z,100659.66
2023-05-07T11:49:21.025Z,100664.81
2023-05-07T11:51:48.572Z,100663.19
2023-05-07T11:54:18.076Z,100660.22
2023-05-07T11:56:46.056Z,100659.50
2023-05-07T11:59:13.559Z,100664.66
2023-05-07T12:01:41.060Z,100663.56
2023-05-07T12:04:08.769Z,100664.97
2023-05-07T12:06:40.018Z,100665.25
2023-05-07T12:09:12.393Z,100660.94
2023-05-07T12:11:41.576Z,100654.69
2023-05-07T12:14:11.550Z,100659.88
2023-05-07T12:16:40.907Z,100646.00
2023-05-07T12:19:09.840Z,100649.00
2023-05-07T12:21:38.702Z,100649.78
2023-05-07T12:24:06.931Z,100646.81
2023-05-07T12:26:34.419Z,100637.06
2023-05-07T12:29:01.943Z,100637.59
2023-05-07T12:31:29.480Z,100641.38
2023-05-07T12:33:56.965Z,100638.38
2023-05-07T12:36:24.412Z,100645.19
2023-05-07T12:38:53.378Z,100640.28
2023-05-07T12:41:26.581Z,100641.09
2023-05-07T12:43:58.326Z,100635.94
2023-05-07T12:46:25.872Z,100630.75
2023-05-07T12:48:54.421Z,100621.25
2023-05-07T12:51:21.949Z,100624.50
2023-05-07T12:53:49.429Z,100632.97
2023-05-07T12:56:18.705Z,100627.75
2023-05-07T12:58:46.164Z,100630.50
2023-05-07T13:01:16.451Z,100625.06
2023-05-07T13:03:51.235Z,100624.25
2023-05-07T13:06:18.843Z,100627.78
2023-05-07T13:08:46.415Z,100629.66
2023-05-07T13:11:14.519Z,100628.84
2023-05-07T13:13:43.560Z,100620.69
2023-05-07T13:16:12.612Z,100619.34
2023-05-07T13:18:41.403Z,100618.28
2023-05-07T13:21:09.233Z,100618.25
2023-05-07T13:23:36.680Z,100615.78
2023-05-07T13:26:11.492Z,100617.41
2023-05-07T13:28:44.326Z,100615.19
2023-05-07T13:31:13.487Z,100613.09
2023-05-07T13:33:40.969Z,100605.47
2023-05-07T13:36:08.810Z,100605.69
2023-05-07T13:38:36.347Z,100610.84
2023-05-07T13:41:03.817Z,100595.56
2023-05-07T13:43:32.768Z,100597.50
2023-05-07T13:46:01.914Z,100600.19
2023-05-07T13:48:29.635Z,100587.41
2023-05-07T13:50:57.058Z,100592.59
2023-05-07T13:53:24.581Z,100596.34
2023-05-07T13:55:52.060Z,100595.81
2023-05-07T13:58:19.532Z,100595.25
2023-05-07T14:00:47.051Z,100594.97
2023-05-07T14:03:15.998Z,100592.53
2023-05-07T14:05:43.675Z,100587.69
2023-05-07T14:08:11.859Z,100584.41
2023-05-07T14:10:39.319Z,100591.50
2023-05-07T14:13:07.341Z,100590.69
2023-05-07T14:15:34.980Z,100583.91
2023-05-07T14:18:02.693Z,100587.50
2023-05-07T14:20:32.037Z,100585.84
2023-05-07T14:22:59.498Z,100586.41
2023-05-07T14:25:26.966Z,100576.88
2023-05-07T14:27:54.502Z,100581.78
2023-05-07T14:30:23.261Z,100577.97
2023-05-07T14:32:50.933Z,100576.63
2023-05-07T14:35:18.656Z,100571.19
2023-05-07T14:37:47.438Z,100568.47
2023-05-07T14:40:15.615Z,100576.88
2023-05-07T14:42:43.084Z,100573.09
2023-05-07T14:45:13.925Z,100578.78
2023-05-07T14:47:41.680Z,100578.53
2023-05-07T14:50:09.598Z,100585.34
2023-05-07T14:52:37.080Z,100586.66
2023-05-07T14:55:06.870Z,100599.75
2023-05-07T14:57:36.700Z,100585.31
2023-05-07T15:00:05.886Z,100581.75
2023-05-07T15:02:33.405Z,100588.31
2023-05-07T15:05:00.986Z,100598.41
2023-05-07T15:07:28.442Z,100596.75
2023-05-07T15:09:56.220Z,100598.91
2023-05-07T15:12:25.020Z,100606.25
2023-05-07T15:14:52.467Z,100610.34
2023-05-07T15:17:19.944Z,100607.06
2023-05-07T15:19:47.393Z,100612.50
2023-05-07T15:22:14.869Z,100609.75
2023-05-07T15:24:42.863Z,100617.63
2023-05-07T15:27:10.374Z,100622.25
2023-05-07T15:29:39.156Z,100623.06
2023-05-07T15:32:06.964Z,100618.16
2023-05-07T15:34:34.541Z,100623.59
2023-05-07T15:39:29.782Z,100627.66
2023-05-07T15:41:57.251Z,100624.84
2023-05-07T15:44:28.284Z,100637.91
2023-05-07T15:46:57.165Z,100630.25
2023-05-07T15:49:24.644Z,100632.97
2023-05-07T15:51:52.979Z,100625.91
2023-05-07T15:54:21.138Z,100627.25
2023-05-07T15:56:48.865Z,100630.78
2023-05-07T15:59:18.169Z,100632.13
2023-05-07T16:01:46.155Z,100636.22
2023-05-07T16:04:15.119Z,100634.03
2023-05-07T16:06:44.759Z,100625.31
2023-05-07T16:09:12.320Z,100635.66
2023-05-07T16:11:39.907Z,100624.22
2023-05-07T16:14:07.542Z,100624.75
2023-05-07T16:16:35.485Z,100623.69
2023-05-07T16:19:02.983Z,100622.56
2023-05-07T16:21:32.821Z,100617.69
2023-05-07T16:24:00.662Z,100629.13
2023-05-07T16:26:28.229Z,100618.78
2023-05-07T16:28:55.822Z,100627.94
2023-05-07T16:31:23.603Z,100629.88
2023-05-07T16:33:51.284Z,100634.78
2023-05-07T16:36:19.092Z,100636.13
2023-05-07T16:38:47.941Z,100637.19
2023-05-07T16:41:15.404Z,100646.13
2023-05-07T16:43:43.013Z,100636.16
2023-05-07T16:46:10.581Z,100673.94
2023-05-07T16:48:38.159Z,100681.28
2023-05-07T16:51:07.182Z,100689.47
2023-05-07T16:53:35.810Z,100693.38
2023-05-07T16:56:06.813Z,100685.13
2023-05-07T16:58:34.479Z,100698.97
2023-05-07T17:01:02.388Z,100707.25
2023-05-07T17:03:31.991Z,100709.72
2023-05-07T17:05:59.681Z,100721.38
2023-05-07T17:08:27.161Z,100731.84
2023-05-07T17:10:54.763Z,100736.31
2023-05-07T17:13:23.633Z,100736.81
2023-05-07T17:15:51.215Z,100740.59
2023-05-07T17:18:18.839Z,100759.00
2023-05-07T17:20:46.264Z,100749.25
2023-05-07T17:23:15.289Z,100760.88
2023-05-07T17:25:45.377Z,100777.44
2023-05-07T17:28:12.883Z,100783.41
2023-05-07T17:30:41.750Z,100795.56
2023-05-07T17:33:20.099Z,100801.16
2023-05-07T17:35:48.797Z,100803.41
2023-05-07T17:38:16.275Z,100796.69
2023-05-07T17:40:43.732Z,100796.03
2023-05-07T17:43:11.228Z,100805.25
2023-05-07T17:45:38.842Z,100810.31
2023-05-07T17:48:08.115Z,100810.31
2023-05-07T17:50:35.588Z,100818.97
2023-05-07T17:53:03.134Z,100828.38
2023-05-07T17:55:33.493Z,100842.03
2023-05-07T17:58:03.218Z,100836.56
2023-05-07T18:00:30.793Z,100839.59
2023-05-07T18:02:59.918Z,100846.72
2023-05-07T18:05:29.392Z,100851.31
2023-05-07T18:07:56.974Z,100859.22
2023-05-07T18:10:24.439Z,100859.25
2023-05-07T18:12:52.010Z,100865.50
2023-05-07T18:15:19.578Z,100867.50
2023-05-07T18:17:47.095Z,100882.41
2023-05-07T18:20:14.706Z,100879.09
2023-05-07T18:22:43.500Z,100883.53
2023-05-07T18:25:11.338Z,100885.56
2023-05-07T18:27:38.806Z,100885.91
2023-05-07T18:30:07.550Z,100871.72
2023-05-07T18:32:35.103Z,100863.28
2023-05-07T18:35:02.557Z,100867.41
2023-05-07T18:37:30.913Z,100885.91
2023-05-07T18:40:02.761Z,100875.97
2023-05-07T18:42:30.697Z,100881.81
2023-05-07T18:44:58.645Z,100883.28
2023-05-07T18:47:26.126Z,100880.94
2023-05-07T18:49:53.553Z,100882.00
2023-05-07T18:52:22.120Z,100886.47
2023-05-07T18:54:49.576Z,100883.44
2023-05-07T18:57:18.416Z,100883.78
2023-05-07T18:59:45.970Z,100888.94
2023-05-07T19:02:14.310Z,100880.63
2023-05-07T19:04:41.826Z,100880.00
2023-05-07T19:07:21.414Z,100874.19
2023-05-07T19:10:03.713Z,100880.59
2023-05-07T19:12:33.546Z,100891.59
2023-05-07T19:15:01.052Z,100889.34
2023-05-07T19:17:28.687Z,100896.59
2023-05-07T19:19:56.244Z,100894.13
2023-05-07T19:22:24.880Z,100899.44
2023-05-07T19:24:52.414Z,100902.53
2023-05-07T19:27:19.956Z,100898.19
2023-05-07T19:29:48.730Z,100902.13
2023-05-07T19:32:16.179Z,100901.69
2023-05-07T19:34:43.908Z,100902.06
2023-05-07T19:37:11.340Z,100919.88
2023-05-07T19:39:38.800Z,100914.47
2023-05-07T19:42:06.776Z,100919.38
2023-05-07T19:44:34.247Z,100923.84
2023-05-07T19:47:03.649Z,100930.97
2023-05-07T19:49:31.150Z,100918.72
2023-05-07T19:51:58.629Z,100934.72
2023-05-07T19:54:26.227Z,100936.81
2023-05-07T19:56:53.713Z,100935.34
2023-05-07T19:59:21.397Z,100930.13
2023-05-07T20:01:48.874Z,100935.34
2023-05-07T20:04:17.672Z,100938.59
2023-05-07T20:06:45.147Z,100936.69
2023-05-07T20:09:13.557Z,100942.97
2023-05-07T20:11:41.232Z,100945.91
2023-05-07T20:14:09.996Z,100945.97
2023-05-07T20:16:37.581Z,100947.47
2023-05-07T20:19:05.039Z,100951.28
2023-05-07T20:21:33.861Z,100953.81
2023-05-07T20:26:43.063Z,100962.31
2023-05-07T20:29:10.553Z,100962.94
2023-05-07T20:31:38.128Z,100966.31
2023-05-07T20:34:05.600Z,100962.72
2023-05-07T20:36:35.865Z,100972.06
2023-05-07T20:39:04.127Z,100974.91
2023-05-07T20:41:31.579Z,100979.66
2023-05-07T20:44:00.333Z,100981.16
2023-05-07T20:46:27.961Z,100980.50
2023-05-07T20:48:56.537Z,100992.22
2023-05-07T20:51:24.066Z,100992.13
2023-05-07T20:53:52.838Z,100997.13
2023-05-07T20:56:21.320Z,101003.41
2023-05-07T20:58:48.833Z,101001.41
2023-05-07T21:01:16.327Z,100996.69
2023-05-07T21:03:43.889Z,101008.03
2023-05-07T21:06:11.436Z,101001.22
2023-05-07T21:08:39.019Z,101008.88
2023-05-07T21:11:09.807Z,101004.31
2023-05-07T21:13:37.289Z,101005.16
2023-05-07T21:16:05.391Z,101002.06
2023-05-07T21:18:33.542Z,101000.78
2023-05-07T21:21:01.041Z,101003.91
2023-05-07T21:23:28.551Z,101004.75
2023-05-07T21:25:56.019Z,101000.22
2023-05-07T21:28:24.816Z,101006.19
2023-05-07T21:30:53.170Z,101010.97
2023-05-07T21:33:20.829Z,101009.56
2023-05-07T21:35:48.287Z,101010.19
2023-05-07T21:38:15.820Z,101015.19
2023-05-07T21:40:43.277Z,101011.88
2023-05-07T21:43:10.720Z,101013.03
2023-05-07T21:45:39.905Z,101013.41
2023-05-07T21:48:07.970Z,101014.66
2023-05-07T21:50:35.782Z,100999.38
2023-05-07T21:53:03.240Z,101003.81
2023-05-07T21:55:30.701Z,100999.66
2023-05-07T21:58:05.566Z,101008.97
2023-05-07T22:00:33.998Z,101004.81
2023-05-07T22:03:02.882Z,101000.25
2023-05-07T22:05:30.521Z,101004.78
2023-05-07T22:07:57.991Z,101008.94
2023-05-07T22:10:25.640Z,101015.72
2023-05-07T22:12:53.177Z,101014.09
2023-05-07T22:15:20.809Z,101016.78
2023-05-07T22:17:48.273Z,101027.78
2023-05-07T22:20:17.409Z,101023.88
2023-05-07T22:22:50.337Z,101027.34
2023-05-07T22:25:20.018Z,101024.84
2023-05-07T22:27:47.520Z,101031.63
2023-05-07T22:30:15.291Z,101030.69
2023-05-07T22:32:43.423Z,101035.59
2023-05-07T22:35:11.414Z,101035.66
2023-05-07T22:37:40.247Z,101036.88
2023-05-07T22:40:08.901Z,101048.53
2023-05-07T22:42:36.497Z,101043.16
2023-05-07T22:45:04.130Z,101046.50
2023-05-07T22:47:31.737Z,101039.06
2023-05-07T22:49:59.263Z,101038.66
2023-05-07T22:52:26.752Z,101048.78
2023-05-07T22:54:55.562Z,101045.91
2023-05-07T22:57:23.033Z,101043.03
2023-05-07T22:59:54.587Z,101042.66
2023-05-07T23:02:22.306Z,101040.00
2023-05-07T23:04:49.949Z,101038.72
2023-05-07T23:07:17.412Z,101034.00
2023-05-07T23:09:45.074Z,101030.91
2023-05-07T23:12:13.920Z,101031.31
2023-05-07T23:14:41.421Z,101030.28
2023-05-07T23:17:09.125Z,101024.94
2023-05-07T23:19:36.987Z,101029.47
2023-05-07T23:22:04.536Z,101033.81
2023-05-07T23:24:32.026Z,101032.16
2023-05-07T23:29:28.339Z,101030.09
2023-05-07T23:31:55.793Z,101029.09
2023-05-07T23:34:24.252Z,101026.81
2023-05-07T23:36:52.010Z,101027.63
2023-05-07T23:39:19.625Z,101028.66
2023-05-07T23:41:47.502Z,101027.41
2023-05-07T23:44:16.344Z,101030.53
2023-05-07T23:46:45.452Z,101035.25
2023-05-07T23:49:13.016Z,101029.84
2023-05-07T23:51:40.454Z,101027.16
2023-05-07T23:54:07.968Z,101032.53
2023-05-07T23:56:35.518Z,101026.53
2023-05-07T23:59:03.236Z,101026.72
